FAOR/JNB METAR and TAF weather

Enter ICAO airport designator
Station Type Date Time Source
FAOR METAR 2019/06/17 13:00 UTC NOAA

FAOR 171300Z 30005KT 210V020 CAVOK 19/M02 Q1030 NOSIG


Station Type Date Time Source
FAOR Decoded METAR 2019/06/17 13:00 UTC NOAA

Station name not available
Jun 17, 2019 - 09:00 AM EDT / 2019.06.17 1300 UTC
Wind: from the WNW (300 degrees) at 6 MPH (5 KT) (direction variable):0
Visibility: greater than 7 mile(s):0
Temperature: 66 F (19 C)
Dew Point: 28 F (-2 C)
Relative Humidity: 24%
Pressure (altimeter): 30.42 in. Hg (1030 hPa)
ob: FAOR 171300Z 30005KT 210V020 CAVOK 19/M02 Q1030 NOSIG
cycle: 13

Station Type Date Time Source
FAOR TAF 2019/06/17 12:00 UTC NOAA

TAF FAOR 171000Z 1712/1818 VRB03KT CAVOK TX19/1712Z TN06/1805Z
BECMG 1808/1810 16014KT
BECMG 1812/1814 09010KT

Example: see airport list